4XDNS LLHA-LLHA
Flight info
| Callsign | 4XDNS |
|---|---|
| Flight time | 0h 2m |
| Altitude | 1000 |
| Route | CIRCUITS |
| Aircraft | C172/L-VD/A |
Departure
| Time | 2026-04-21 15:16 |
|---|---|
| Airport | Uri Michaeli Haifa International Airport (LLHA) |
Arrival
| Time | 2026-04-21 15:18 |
|---|---|
| Airport | Uri Michaeli Haifa International Airport (LLHA) |
| Time | Latitude | Longitude | Altitude | Speed | Heading |
|---|---|---|---|---|---|
| 2026-04-21 15:11 | 32.81433 | 35.04324 | 24 ft | 0 kts | 70° |
| 2026-04-21 15:13 | 32.81469 | 35.04332 | 23 ft | 9 kts | 332° |
| 2026-04-21 15:13 | 32.81483 | 35.04268 | 24 ft | 12 kts | 255° |
| 2026-04-21 15:13 | 32.81446 | 35.04196 | 25 ft | 14 kts | 176° |
| 2026-04-21 15:14 | 32.81203 | 35.04298 | 23 ft | 47 kts | 160° |
| 2026-04-21 15:14 | 32.80927 | 35.04406 | 23 ft | 37 kts | 167° |
| 2026-04-21 15:14 | 32.80715 | 35.04489 | 21 ft | 26 kts | 158° |
| 2026-04-21 15:14 | 32.80674 | 35.04542 | 21 ft | 12 kts | 341° |
| 2026-04-21 15:15 | 32.80916 | 35.04423 | 23 ft | 60 kts | 340° |
| 2026-04-21 15:15 | 32.81375 | 35.04236 | 130 ft | 72 kts | 341° |
| 2026-04-21 15:15 | 32.81895 | 35.04094 | 323 ft | 78 kts | 354° |
| 2026-04-21 15:15 | 32.82411 | 35.04207 | 534 ft | 79 kts | 36° |
| 2026-04-21 15:16 | 32.82792 | 35.04770 | 645 ft | 95 kts | 53° |
| 2026-04-21 15:16 | 32.82768 | 35.05504 | 788 ft | 104 kts | 132° |
| 2026-04-21 15:16 | 32.82128 | 35.05925 | 923 ft | 111 kts | 164° |
| 2026-04-21 15:16 | 32.81351 | 35.06296 | 944 ft | 125 kts | 162° |
| 2026-04-21 15:17 | 32.80481 | 35.06731 | 880 ft | 141 kts | 158° |
| 2026-04-21 15:17 | 32.79559 | 35.07139 | 890 ft | 142 kts | 180° |
| 2026-04-21 15:17 | 32.78742 | 35.06661 | 837 ft | 124 kts | 238° |
| 2026-04-21 15:17 | 32.78550 | 35.05767 | 786 ft | 108 kts | 291° |
| 2026-04-21 15:18 | 32.79039 | 35.05204 | 393 ft | 94 kts | 328° |
| 2026-04-21 15:18 | 32.79627 | 35.04961 | 257 ft | 86 kts | 343° |
| 2026-04-21 15:18 | 32.80113 | 35.04771 | 105 ft | 62 kts | 340° |
| 2026-04-21 15:18 | 32.80452 | 35.04655 | 26 ft | 43 kts | 332° |
| 2026-04-21 15:19 | 32.80763 | 35.04543 | 123 ft | 49 kts | 340° |
| 2026-04-21 15:19 | 32.81099 | 35.04450 | 275 ft | 49 kts | 342° |
| 2026-04-21 15:19 | 32.81470 | 35.04310 | 349 ft | 66 kts | 333° |
| 2026-04-21 15:19 | 32.81932 | 35.04129 | 516 ft | 74 kts | 340° |
| 2026-04-21 15:20 | 32.82431 | 35.04359 | 581 ft | 100 kts | 33° |
| 2026-04-21 15:20 | 32.82918 | 35.05055 | 611 ft | 117 kts | 53° |
| 2026-04-21 15:20 | 32.82610 | 35.05770 | 755 ft | 111 kts | 153° |
| 2026-04-21 15:20 | 32.81907 | 35.06142 | 888 ft | 114 kts | 162° |
| 2026-04-21 15:21 | 32.81145 | 35.06501 | 916 ft | 129 kts | 162° |
| 2026-04-21 15:21 | 32.80322 | 35.06889 | 897 ft | 125 kts | 162° |
| 2026-04-21 15:21 | 32.79475 | 35.07144 | 880 ft | 124 kts | 184° |
| 2026-04-21 15:21 | 32.78748 | 35.06770 | 853 ft | 113 kts | 226° |
| 2026-04-21 15:22 | 32.78337 | 35.06026 | 766 ft | 107 kts | 266° |
| 2026-04-21 15:22 | 32.78684 | 35.05334 | 680 ft | 87 kts | 327° |
| 2026-04-21 15:22 | 32.79226 | 35.05135 | 564 ft | 79 kts | 339° |
| 2026-04-21 15:22 | 32.79730 | 35.04929 | 327 ft | 85 kts | 334° |
| 2026-04-21 15:23 | 32.80333 | 35.04670 | 94 ft | 96 kts | 336° |
| 2026-04-21 15:23 | 32.80896 | 35.04433 | 32 ft | 72 kts | 339° |
| 2026-04-21 15:23 | 32.81348 | 35.04243 | 220 ft | 67 kts | 337° |
| 2026-04-21 15:23 | 32.81780 | 35.04082 | 406 ft | 63 kts | 335° |
| 2026-04-21 15:24 | 32.82216 | 35.04179 | 562 ft | 74 kts | 32° |
| 2026-04-21 15:24 | 32.82629 | 35.04696 | 583 ft | 97 kts | 38° |
| 2026-04-21 15:24 | 32.82864 | 35.05476 | 782 ft | 106 kts | 115° |
| 2026-04-21 15:24 | 32.82308 | 35.05960 | 929 ft | 106 kts | 159° |
| 2026-04-21 15:25 | 32.81591 | 35.06322 | 960 ft | 118 kts | 161° |
| 2026-04-21 15:25 | 32.80776 | 35.06704 | 945 ft | 133 kts | 162° |
| 2026-04-21 15:25 | 32.79890 | 35.07105 | 895 ft | 142 kts | 164° |
| 2026-04-21 15:25 | 32.78966 | 35.07240 | 969 ft | 127 kts | 144° |
| 2026-04-21 15:26 | 32.78188 | 35.07779 | 770 ft | 140 kts | 176° |
| 2026-04-21 15:26 | 32.77312 | 35.07532 | 603 ft | 104 kts | 253° |
| 2026-04-21 15:26 | 32.77499 | 35.06900 | 494 ft | 82 kts | 308° |
| 2026-04-21 15:26 | 32.77844 | 35.06352 | 483 ft | 81 kts | 309° |
| 2026-04-21 15:27 | 32.78225 | 35.05860 | 425 ft | 80 kts | 316° |
| 2026-04-21 15:27 | 32.78672 | 35.05394 | 434 ft | 91 kts | 322° |
| 2026-04-21 15:27 | 32.79301 | 35.05083 | 371 ft | 105 kts | 339° |
| 2026-04-21 15:27 | 32.80032 | 35.04808 | 202 ft | 111 kts | 335° |
| 2026-04-21 15:28 | 32.80702 | 35.04508 | 26 ft | 83 kts | 339° |
| 2026-04-21 15:28 | 32.81215 | 35.04307 | 147 ft | 79 kts | 337° |
| 2026-04-21 15:28 | 32.81723 | 35.04108 | 400 ft | 74 kts | 337° |
| 2026-04-21 15:28 | 32.82253 | 35.04171 | 557 ft | 87 kts | 25° |
| 2026-04-21 15:29 | 32.82569 | 35.04489 | 701 ft | 90 kts | 38° |
| 2026-04-21 15:29 | 32.82936 | 35.05483 | 689 ft | 104 kts | 150° |
| 2026-04-21 15:29 | 32.82238 | 35.05821 | 752 ft | 113 kts | 166° |
| 2026-04-21 15:29 | 32.81456 | 35.06146 | 785 ft | 124 kts | 160° |
| 2026-04-21 15:30 | 32.80616 | 35.06560 | 763 ft | 138 kts | 159° |
| 2026-04-21 15:30 | 32.79746 | 35.07029 | 672 ft | 134 kts | 159° |
| 2026-04-21 15:30 | 32.79178 | 35.07186 | 717 ft | 115 kts | 205° |
| 2026-04-21 15:30 | 32.78615 | 35.06536 | 485 ft | 129 kts | 234° |
| 2026-04-21 15:31 | 32.78433 | 35.05784 | 578 ft | 90 kts | 314° |
| 2026-04-21 15:31 | 32.79123 | 35.05137 | 491 ft | 102 kts | 336° |
| 2026-04-21 15:31 | 32.79845 | 35.04883 | 305 ft | 114 kts | 338° |
| 2026-04-21 15:31 | 32.80542 | 35.04585 | 43 ft | 84 kts | 338° |
| 2026-04-21 15:32 | 32.80849 | 35.04457 | 22 ft | 61 kts | 337° |
| 2026-04-21 15:32 | 32.81285 | 35.04298 | 172 ft | 69 kts | 2° |
| 2026-04-21 15:32 | 32.81588 | 35.04722 | 400 ft | 80 kts | 88° |
| 2026-04-21 15:32 | 32.81371 | 35.05428 | 499 ft | 99 kts | 94° |
| 2026-04-21 15:33 | 32.81445 | 35.06222 | 758 ft | 94 kts | 72° |
| 2026-04-21 15:33 | 32.81541 | 35.07018 | 894 ft | 99 kts | 77° |
| 2026-04-21 15:33 | 32.81776 | 35.08108 | 1056 ft | 106 kts | 63° |
| 2026-04-21 15:33 | 32.82028 | 35.08946 | 1167 ft | 113 kts | 62° |
| 2026-04-21 15:34 | 32.82244 | 35.09500 | 1254 ft | 115 kts | 57° |
| 2026-04-21 15:34 | 32.82574 | 35.10363 | 1328 ft | 120 kts | 63° |
| 2026-04-21 15:34 | 32.82818 | 35.11274 | 1452 ft | 121 kts | 68° |
| 2026-04-21 15:34 | 32.83081 | 35.12233 | 1567 ft | 120 kts | 64° |
| 2026-04-21 15:35 | 32.83430 | 35.13243 | 1452 ft | 132 kts | 65° |
| 2026-04-21 15:35 | 32.83732 | 35.14187 | 1560 ft | 114 kts | 60° |
| 2026-04-21 15:35 | 32.84317 | 35.14659 | 1456 ft | 106 kts | 5° |
| 2026-04-21 15:35 | 32.85070 | 35.14786 | 1321 ft | 112 kts | 358° |
| 2026-04-21 15:36 | 32.85799 | 35.14744 | 1395 ft | 101 kts | 346° |
| 2026-04-21 15:36 | 32.86461 | 35.14426 | 1291 ft | 108 kts | 324° |
| 2026-04-21 15:36 | 32.87012 | 35.13869 | 1420 ft | 97 kts | 312° |
| 2026-04-21 15:36 | 32.87458 | 35.13254 | 1431 ft | 103 kts | 305° |
| 2026-04-21 15:37 | 32.87911 | 35.12635 | 1594 ft | 92 kts | 322° |
| 2026-04-21 15:37 | 32.88421 | 35.12340 | 2056 ft | 65 kts | 332° |
| 2026-04-21 15:37 | 32.88835 | 35.12190 | 2354 ft | 58 kts | 343° |
| 2026-04-21 15:37 | 32.89279 | 35.12111 | 2522 ft | 67 kts | 343° |
| 2026-04-21 15:38 | 32.89608 | 35.11873 | 2683 ft | 72 kts | 261° |
| 2026-04-21 15:38 | 32.89182 | 35.12019 | 2867 ft | 85 kts | 116° |
| 2026-04-21 15:38 | 32.88942 | 35.12699 | 2079 ft | 151 kts | 106° |
| 2026-04-21 15:38 | 32.88738 | 35.13692 | 2680 ft | 85 kts | 94° |
| 2026-04-21 15:39 | 32.88765 | 35.14143 | 2182 ft | 96 kts | 215° |
| 2026-04-21 15:39 | 32.88015 | 35.14228 | 2083 ft | 126 kts | 156° |
| 2026-04-21 15:39 | 32.87880 | 35.14764 | 2112 ft | 85 kts | 292° |
| 2026-04-21 15:39 | 32.88011 | 35.14793 | 1931 ft | 75 kts | 354° |
| 2026-04-21 15:40 | 32.88518 | 35.15261 | 1700 ft | 121 kts | 49° |
| 2026-04-21 15:40 | 32.89207 | 35.15525 | 1540 ft | 121 kts | 308° |
| 2026-04-21 15:40 | 32.88731 | 35.14866 | 1376 ft | 141 kts | 192° |
| 2026-04-21 15:40 | 32.87918 | 35.14519 | 1594 ft | 125 kts | 210° |
| 2026-04-21 15:41 | 32.87179 | 35.14116 | 1956 ft | 96 kts | 213° |
| 2026-04-21 15:41 | 32.86472 | 35.13808 | 1976 ft | 113 kts | 206° |
| 2026-04-21 15:41 | 32.85696 | 35.13520 | 2062 ft | 119 kts | 206° |
| 2026-04-21 15:41 | 32.84877 | 35.13186 | 2026 ft | 130 kts | 204° |
| 2026-04-21 15:42 | 32.84021 | 35.12781 | 2064 ft | 126 kts | 216° |
| 2026-04-21 15:42 | 32.83560 | 35.12034 | 2177 ft | 113 kts | 260° |
| 2026-04-21 15:42 | 32.83510 | 35.11046 | 1839 ft | 124 kts | 282° |
| 2026-04-21 15:42 | 32.83378 | 35.10150 | 1896 ft | 112 kts | 236° |
| 2026-04-21 15:43 | 32.82894 | 35.09460 | 1849 ft | 111 kts | 231° |
| 2026-04-21 15:43 | 32.82394 | 35.08756 | 1690 ft | 114 kts | 255° |
| 2026-04-21 15:43 | 32.82086 | 35.07906 | 1716 ft | 116 kts | 218° |
| 2026-04-21 15:43 | 32.81272 | 35.07714 | 1355 ft | 138 kts | 184° |
| 2026-04-21 15:44 | 32.80368 | 35.07551 | 872 ft | 121 kts | 195° |
| 2026-04-21 15:44 | 32.79523 | 35.07301 | 697 ft | 121 kts | 206° |
| 2026-04-21 15:44 | 32.78834 | 35.06846 | 770 ft | 112 kts | 226° |
| 2026-04-21 15:44 | 32.78368 | 35.06054 | 503 ft | 115 kts | 270° |
| 2026-04-21 15:45 | 32.78758 | 35.05413 | 429 ft | 98 kts | 317° |
| 2026-04-21 15:45 | 32.79322 | 35.05005 | 363 ft | 87 kts | 343° |
| 2026-04-21 15:45 | 32.79847 | 35.04893 | 253 ft | 69 kts | 334° |
| 2026-04-21 15:45 | 32.80282 | 35.04691 | 83 ft | 68 kts | 335° |
| 2026-04-21 15:46 | 32.80702 | 35.04513 | 28 ft | 60 kts | 336° |
| 2026-04-21 15:46 | 32.81063 | 35.04343 | 99 ft | 55 kts | 332° |
| 2026-04-21 15:46 | 32.81437 | 35.04170 | 212 ft | 55 kts | 337° |
| 2026-04-21 15:46 | 32.81770 | 35.03988 | 337 ft | 52 kts | 326° |
| 2026-04-21 15:47 | 32.82110 | 35.03846 | 404 ft | 56 kts | 3° |
| 2026-04-21 15:47 | 32.82431 | 35.04180 | 505 ft | 74 kts | 38° |
| 2026-04-21 15:47 | 32.82791 | 35.04720 | 631 ft | 92 kts | 48° |
| 2026-04-21 15:47 | 32.82816 | 35.05458 | 749 ft | 96 kts | 126° |
| 2026-04-21 15:48 | 32.82254 | 35.05900 | 843 ft | 101 kts | 160° |
| 2026-04-21 15:48 | 32.81578 | 35.06216 | 935 ft | 108 kts | 163° |
| 2026-04-21 15:48 | 32.80835 | 35.06542 | 887 ft | 118 kts | 158° |
| 2026-04-21 15:48 | 32.80083 | 35.07010 | 760 ft | 124 kts | 155° |
| 2026-04-21 15:49 | 32.79313 | 35.07252 | 865 ft | 98 kts | 199° |
| 2026-04-21 15:49 | 32.78774 | 35.06898 | 884 ft | 95 kts | 223° |
| 2026-04-21 15:49 | 32.78282 | 35.06308 | 691 ft | 93 kts | 251° |
| 2026-04-21 15:49 | 32.78465 | 35.05778 | 718 ft | 76 kts | 307° |
| 2026-04-21 15:50 | 32.78858 | 35.05323 | 562 ft | 83 kts | 321° |
| 2026-04-21 15:50 | 32.79364 | 35.05048 | 408 ft | 70 kts | 342° |
| 2026-04-21 15:50 | 32.79818 | 35.04917 | 203 ft | 70 kts | 336° |
| 2026-04-21 15:50 | 32.80258 | 35.04703 | 121 ft | 78 kts | 339° |
| 2026-04-21 15:51 | 32.80817 | 35.04460 | 29 ft | 88 kts | 336° |
| 2026-04-21 15:51 | 32.81312 | 35.04246 | 88 ft | 70 kts | 338° |
| 2026-04-21 15:51 | 32.81732 | 35.04057 | 338 ft | 64 kts | 334° |
| 2026-04-21 15:51 | 32.82181 | 35.03998 | 544 ft | 68 kts | 21° |
| 2026-04-21 15:52 | 32.82544 | 35.04445 | 625 ft | 92 kts | 40° |
| 2026-04-21 15:52 | 32.82981 | 35.05046 | 791 ft | 100 kts | 71° |
| 2026-04-21 15:52 | 32.82516 | 35.05575 | 910 ft | 106 kts | 158° |
| 2026-04-21 15:52 | 32.81851 | 35.05959 | 995 ft | 114 kts | 154° |
| 2026-04-21 15:53 | 32.81128 | 35.06440 | 1025 ft | 124 kts | 150° |
| 2026-04-21 15:53 | 32.80356 | 35.06956 | 942 ft | 128 kts | 157° |
| 2026-04-21 15:53 | 32.79535 | 35.07284 | 719 ft | 119 kts | 184° |
| 2026-04-21 15:53 | 32.78903 | 35.06864 | 674 ft | 108 kts | 224° |
| 2026-04-21 15:54 | 32.78356 | 35.06240 | 472 ft | 105 kts | 241° |
| 2026-04-21 15:54 | 32.78537 | 35.05685 | 523 ft | 81 kts | 305° |
| 2026-04-21 15:54 | 32.78969 | 35.05230 | 476 ft | 88 kts | 329° |
| 2026-04-21 15:54 | 32.79567 | 35.04994 | 324 ft | 92 kts | 339° |
| 2026-04-21 15:55 | 32.80141 | 35.04751 | 140 ft | 75 kts | 334° |
| 2026-04-21 15:55 | 32.80584 | 35.04566 | 26 ft | 56 kts | 338° |
| 2026-04-21 15:55 | 32.80938 | 35.04418 | 99 ft | 57 kts | 336° |
| 2026-04-21 15:55 | 32.81360 | 35.04237 | 185 ft | 67 kts | 337° |
| 2026-04-21 15:56 | 32.81785 | 35.04078 | 396 ft | 60 kts | 341° |
| 2026-04-21 15:56 | 32.82275 | 35.04183 | 428 ft | 90 kts | 34° |
| 2026-04-21 15:56 | 32.82834 | 35.04797 | 405 ft | 116 kts | 39° |
| 2026-04-21 15:56 | 32.82899 | 35.05422 | 658 ft | 94 kts | 155° |
| 2026-04-21 15:57 | 32.82254 | 35.05740 | 712 ft | 107 kts | 158° |
| 2026-04-21 15:57 | 32.81537 | 35.06062 | 784 ft | 113 kts | 156° |
| 2026-04-21 15:57 | 32.80799 | 35.06476 | 800 ft | 122 kts | 155° |
| 2026-04-21 15:57 | 32.80026 | 35.06946 | 754 ft | 133 kts | 150° |
| 2026-04-21 15:58 | 32.79248 | 35.07076 | 786 ft | 95 kts | 210° |
| 2026-04-21 15:58 | 32.78739 | 35.06596 | 645 ft | 93 kts | 227° |
| 2026-04-21 15:58 | 32.78407 | 35.05980 | 458 ft | 79 kts | 294° |
| 2026-04-21 15:58 | 32.78756 | 35.05537 | 415 ft | 75 kts | 317° |
| 2026-04-21 15:59 | 32.79123 | 35.05166 | 448 ft | 62 kts | 327° |
| 2026-04-21 15:59 | 32.79564 | 35.05014 | 309 ft | 62 kts | 345° |
| 2026-04-21 15:59 | 32.79948 | 35.04855 | 192 ft | 59 kts | 334° |
| 2026-04-21 15:59 | 32.80362 | 35.04663 | 70 ft | 66 kts | 339° |
| 2026-04-21 16:00 | 32.80759 | 35.04489 | 22 ft | 54 kts | 336° |
| 2026-04-21 16:00 | 32.81146 | 35.04291 | 117 ft | 68 kts | 334° |
| 2026-04-21 16:00 | 32.81647 | 35.04109 | 276 ft | 79 kts | 346° |
| 2026-04-21 16:00 | 32.82189 | 35.03981 | 492 ft | 78 kts | 3° |
| 2026-04-21 16:01 | 32.82606 | 35.04464 | 601 ft | 101 kts | 46° |
| 2026-04-21 16:01 | 32.82955 | 35.05147 | 866 ft | 82 kts | 97° |
| 2026-04-21 16:01 | 32.82459 | 35.05490 | 895 ft | 99 kts | 162° |
| 2026-04-21 16:01 | 32.81743 | 35.05809 | 876 ft | 116 kts | 158° |
| 2026-04-21 16:02 | 32.81000 | 35.06170 | 891 ft | 114 kts | 155° |
| 2026-04-21 16:02 | 32.80269 | 35.06697 | 809 ft | 128 kts | 149° |
| 2026-04-21 16:02 | 32.79444 | 35.07158 | 751 ft | 130 kts | 179° |
| 2026-04-21 16:02 | 32.78785 | 35.06619 | 872 ft | 116 kts | 233° |
| 2026-04-21 16:03 | 32.78626 | 35.05798 | 632 ft | 114 kts | 313° |
| 2026-04-21 16:03 | 32.79192 | 35.05143 | 523 ft | 117 kts | 330° |
| 2026-04-21 16:03 | 32.79946 | 35.04837 | 249 ft | 100 kts | 336° |
| 2026-04-21 16:03 | 32.80443 | 35.04619 | 52 ft | 60 kts | 341° |
| 2026-04-21 16:04 | 32.80764 | 35.04473 | 74 ft | 46 kts | 337° |
| 2026-04-21 16:04 | 32.81103 | 35.04354 | 190 ft | 56 kts | 343° |
| 2026-04-21 16:04 | 32.81468 | 35.04209 | 363 ft | 53 kts | 338° |
| 2026-04-21 16:04 | 32.81838 | 35.04061 | 484 ft | 60 kts | 345° |
| 2026-04-21 16:05 | 32.82240 | 35.04161 | 564 ft | 76 kts | 28° |
| 2026-04-21 16:05 | 32.82698 | 35.04670 | 653 ft | 99 kts | 39° |
| 2026-04-21 16:05 | 32.82904 | 35.05374 | 751 ft | 107 kts | 132° |
| 2026-04-21 16:05 | 32.82199 | 35.05738 | 795 ft | 116 kts | 162° |
| 2026-04-21 16:06 | 32.81430 | 35.06083 | 858 ft | 121 kts | 160° |
| 2026-04-21 16:06 | 32.80620 | 35.06455 | 662 ft | 134 kts | 156° |
| 2026-04-21 16:06 | 32.79902 | 35.07044 | 735 ft | 121 kts | 142° |
| 2026-04-21 16:06 | 32.79159 | 35.07151 | 882 ft | 107 kts | 215° |
| 2026-04-21 16:07 | 32.78529 | 35.06541 | 843 ft | 119 kts | 232° |
| 2026-04-21 16:07 | 32.78491 | 35.05792 | 929 ft | 104 kts | 311° |
| 2026-04-21 16:07 | 32.79128 | 35.05096 | 431 ft | 119 kts | 327° |
| 2026-04-21 16:07 | 32.79703 | 35.04949 | 248 ft | 75 kts | 339° |
| 2026-04-21 16:08 | 32.80709 | 35.04518 | 29 ft | 63 kts | 338° |
| 2026-04-21 16:08 | 32.81133 | 35.04310 | 204 ft | 66 kts | 330° |
| 2026-04-21 16:08 | 32.81535 | 35.04051 | 409 ft | 66 kts | 323° |
| 2026-04-21 16:09 | 32.81985 | 35.03904 | 566 ft | 75 kts | 11° |
| 2026-04-21 16:09 | 32.82433 | 35.04377 | 582 ft | 100 kts | 39° |
| 2026-04-21 16:09 | 32.82905 | 35.04982 | 669 ft | 105 kts | 46° |
| 2026-04-21 16:09 | 32.82626 | 35.05641 | 811 ft | 112 kts | 155° |
| 2026-04-21 16:10 | 32.81884 | 35.06032 | 873 ft | 121 kts | 158° |
| 2026-04-21 16:10 | 32.81109 | 35.06419 | 882 ft | 129 kts | 156° |
| 2026-04-21 16:10 | 32.80271 | 35.06830 | 862 ft | 133 kts | 161° |
| 2026-04-21 16:10 | 32.79401 | 35.07124 | 733 ft | 101 kts | 188° |
| 2026-04-21 16:11 | 32.78909 | 35.06717 | 652 ft | 92 kts | 227° |
| 2026-04-21 16:11 | 32.78414 | 35.06197 | 529 ft | 89 kts | 247° |
| 2026-04-21 16:11 | 32.78589 | 35.05688 | 524 ft | 71 kts | 310° |
| 2026-04-21 16:11 | 32.78962 | 35.05268 | 472 ft | 77 kts | 323° |
| 2026-04-21 16:12 | 32.79431 | 35.05050 | 365 ft | 66 kts | 347° |
| 2026-04-21 16:12 | 32.79873 | 35.04894 | 286 ft | 70 kts | 340° |
| 2026-04-21 16:12 | 32.80352 | 35.04654 | 112 ft | 81 kts | 338° |
| 2026-04-21 16:12 | 32.80894 | 35.04439 | 85 ft | 76 kts | 338° |
| 2026-04-21 16:13 | 32.81382 | 35.04206 | 261 ft | 76 kts | 334° |
| 2026-04-21 16:13 | 32.81864 | 35.03938 | 415 ft | 77 kts | 331° |
| 2026-04-21 16:13 | 32.82364 | 35.03781 | 558 ft | 82 kts | 22° |
| 2026-04-21 16:13 | 32.82722 | 35.04432 | 590 ft | 101 kts | 55° |
| 2026-04-21 16:14 | 32.82946 | 35.05240 | 579 ft | 108 kts | 86° |
| 2026-04-21 16:14 | 32.82511 | 35.05754 | 564 ft | 97 kts | 162° |
| 2026-04-21 16:14 | 32.81855 | 35.06019 | 569 ft | 99 kts | 162° |
| 2026-04-21 16:14 | 32.81212 | 35.06325 | 583 ft | 100 kts | 158° |
| 2026-04-21 16:15 | 32.80583 | 35.06645 | 620 ft | 104 kts | 158° |
| 2026-04-21 16:15 | 32.79867 | 35.07014 | 640 ft | 117 kts | 157° |
| 2026-04-21 16:15 | 32.79162 | 35.07396 | 627 ft | 106 kts | 156° |
| 2026-04-21 16:15 | 32.78485 | 35.07675 | 487 ft | 109 kts | 168° |
| 2026-04-21 16:16 | 32.77763 | 35.07776 | 541 ft | 97 kts | 186° |
| 2026-04-21 16:16 | 32.77270 | 35.07399 | 541 ft | 90 kts | 266° |
| 2026-04-21 16:16 | 32.77528 | 35.06645 | 473 ft | 106 kts | 313° |
| 2026-04-21 16:16 | 32.78061 | 35.06019 | 459 ft | 111 kts | 319° |
| 2026-04-21 16:17 | 32.78667 | 35.05444 | 439 ft | 113 kts | 324° |
| 2026-04-21 16:17 | 32.79356 | 35.05035 | 390 ft | 99 kts | 344° |
| 2026-04-21 16:17 | 32.79925 | 35.04848 | 220 ft | 78 kts | 337° |
| 2026-04-21 16:17 | 32.80406 | 35.04642 | 75 ft | 71 kts | 336° |
| 2026-04-21 16:18 | 32.80864 | 35.04434 | 33 ft | 69 kts | 334° |
| 2026-04-21 16:18 | 32.81309 | 35.04239 | 230 ft | 65 kts | 335° |
| 2026-04-21 16:18 | 32.81743 | 35.04029 | 382 ft | 70 kts | 334° |
| 2026-04-21 16:18 | 32.82210 | 35.04111 | 555 ft | 82 kts | 34° |
| 2026-04-21 16:19 | 32.82640 | 35.04694 | 520 ft | 100 kts | 44° |
| 2026-04-21 16:19 | 32.82941 | 35.05328 | 610 ft | 97 kts | 108° |
| 2026-04-21 16:19 | 32.82366 | 35.05764 | 743 ft | 104 kts | 160° |
| 2026-04-21 16:19 | 32.81659 | 35.06089 | 806 ft | 116 kts | 161° |
| 2026-04-21 16:20 | 32.80888 | 35.06451 | 857 ft | 122 kts | 158° |
| 2026-04-21 16:20 | 32.80083 | 35.06893 | 806 ft | 133 kts | 156° |
| 2026-04-21 16:20 | 32.79215 | 35.07068 | 848 ft | 126 kts | 199° |
| 2026-04-21 16:20 | 32.78531 | 35.06420 | 704 ft | 131 kts | 233° |
| 2026-04-21 16:21 | 32.78614 | 35.05554 | 617 ft | 118 kts | 314° |
| 2026-04-21 16:21 | 32.79163 | 35.05128 | 465 ft | 71 kts | 341° |
| 2026-04-21 16:21 | 32.79624 | 35.04984 | 280 ft | 72 kts | 340° |
| 2026-04-21 16:21 | 32.80100 | 35.04765 | 147 ft | 77 kts | 337° |
| 2026-04-21 16:22 | 32.80553 | 35.04579 | 32 ft | 58 kts | 336° |
| 2026-04-21 16:22 | 32.80841 | 35.04448 | 22 ft | 35 kts | 346° |
| 2026-04-21 16:22 | 32.81056 | 35.04359 | 21 ft | 37 kts | 341° |
| 2026-04-21 16:22 | 32.81299 | 35.04251 | 24 ft | 33 kts | 340° |
| 2026-04-21 16:23 | 32.81463 | 35.04193 | 26 ft | 7 kts | 26° |
| 2026-04-21 16:23 | 32.81476 | 35.04234 | 25 ft | 5 kts | 77° |
| 2026-04-21 16:23 | 32.81485 | 35.04278 | 24 ft | 6 kts | 69° |
| 2026-04-21 16:23 | 32.81500 | 35.04329 | 22 ft | 7 kts | 68° |
| 2026-04-21 16:24 | 32.81510 | 35.04373 | 22 ft | 7 kts | 80° |